Blue Star 1 — SWET — position and weather

sailwx.info

Track history (hours):
 
Tides and Currents Weather Stations Pressure Air Temp Water Temp Dewpoint Dewpoint Depression Visibility Wind Speed Wind Dir Waves Ship Positions

Blue Star 1

Last reported at 2015-Mar-30 22:34 UTC. Time now 2015-Mar-31 16:57 UTC.
Position N 37°19' E 025°53'.

Length 176 m; draft 6.5 m.

Type: Passenger vessel. MMSI: 239710000.

Date/timePositionNaut miles runAvg speedWind from/ knotsBaromVisibWave heightAir tempDewpointWater temp
2015-Mar-30 22:34N 37°19' E 025°53'2222.3
2015-Mar-30 21:34N 37°20' E 025°25'2322.2
2015-Mar-30 20:33N 37°26' E 024°58'9 9.4
2015-Mar-30 19:34N 37°32' E 024°49'4521.6
2015-Mar-30 17:29N 37°37' E 023°52'1920.3
2015-Mar-30 16:34N 37°52' E 023°38'5 4.8
2015-Mar-30 15:33N 37°56' E 023°38'0 0.0
2015-Mar-30 14:30N 37°56' E 023°38'0 0.0
2015-Mar-30 13:33N 37°56' E 023°38'0 0.0
2015-Mar-30 12:33N 37°56' E 023°38'0 0.0
2015-Mar-30 11:29N 37°56' E 023°38'0 0.0
2015-Mar-30 10:29N 37°56' E 023°38'0 0.0
2015-Mar-30 09:32N 37°56' E 023°38'0 0.0
2015-Mar-30 08:32N 37°56' E 023°38'0 0.0
2015-Mar-30 07:33N 37°56' E 023°38'0 0.0
2015-Mar-30 06:33N 37°56' E 023°38'0 0.0
2015-Mar-30 05:33N 37°56' E 023°38'9 8.6
2015-Mar-30 04:33N 37°48' E 023°41'2321.2
2015-Mar-30 03:29N 37°35' E 024°04'4320.8
2015-Mar-30 01:25N 37°26' E 024°57'5 5.6
2015-Mar-30 00:32N 37°25' E 025°03'2222.3
2015-Mar-29 23:33N 37°20' E 025°30'19 0.4
2015-Mar-27 23:30N 37°18' E 025°54'2122.4
2015-Mar-27 22:33N 37°20' E 025°27'2222.0
2015-Mar-27 21:33N 37°26' E 024°60'1010.2
2015-Mar-27 20:32N 37°32' E 024°49'5021.8
2015-Mar-27 18:14N 37°38' E 023°46'1521.9
2015-Mar-27 17:32N 37°51' E 023°37'5 5.4
2015-Mar-27 16:33N 37°56' E 023°38'0 0.0
2015-Mar-27 15:32N 37°56' E 023°38'0 0.0
2015-Mar-27 14:32N 37°56' E 023°38'0 0.0
2015-Mar-27 13:29N 37°56' E 023°38'0 0.2
2015-Mar-27 12:32N 37°57' E 023°38'0 0.0
2015-Mar-27 11:29N 37°57' E 023°38'0 0.0
2015-Mar-27 10:29N 37°57' E 023°38'0 0.0
2015-Mar-27 09:32N 37°57' E 023°38'0 0.0
2015-Mar-27 08:32N 37°57' E 023°38'0 0.0
2015-Mar-27 07:32N 37°57' E 023°38'0 0.0
2015-Mar-27 06:23N 37°57' E 023°38'0 0.0
2015-Mar-27 05:30N 37°57' E 023°38'1212.5
2015-Mar-27 04:33N 37°45' E 023°42'5321.9
2015-Mar-27 02:07N 37°24' E 024°44'1722.2
2015-Mar-27 01:21N 37°20' E 025°05'1822.7
2015-Mar-27 00:33N 37°19' E 025°27'21 0.8
2015-Mar-25 23:21N 37°18' E 025°54'1822.3
2015-Mar-25 22:33N 37°20' E 025°32'2222.0
2015-Mar-25 21:33N 37°24' E 025°04'1311.5
2015-Mar-25 20:26N 37°32' E 024°51'4321.6
2015-Mar-25 18:26N 37°36' E 023°57'2120.9
2015-Mar-25 17:26N 37°50' E 023°37'7 7.4
2015-Mar-25 16:32N 37°56' E 023°38'0 0.0
2015-Mar-25 15:29N 37°56' E 023°38'0 0.0
2015-Mar-25 14:26N 37°56' E 023°38'0 0.0
2015-Mar-25 13:32N 37°56' E 023°38'0 0.0
2015-Mar-25 12:32N 37°56' E 023°38'0 0.0
2015-Mar-25 11:31N 37°56' E 023°38'0 0.0
2015-Mar-25 10:31N 37°56' E 023°38'0 0.0
2015-Mar-25 09:31N 37°56' E 023°38'0 0.0
2015-Mar-25 08:31N 37°56' E 023°38'0 0.0
2015-Mar-25 07:31N 37°56' E 023°38'0 0.0
2015-Mar-25 06:31N 37°56' E 023°38'0 0.0
2015-Mar-25 05:22N 37°56' E 023°38'0 0.0
2015-Mar-25 04:31N 37°56' E 023°38'1010.1
2015-Mar-25 03:33N 37°47' E 023°42'6521.9
2015-Mar-25 00:34N 37°19' E 024°56'2322.7
2015-Mar-24 23:33N 37°16' E 025°25'4922.2
2015-Mar-24 21:21N 37°04' E 026°24'30 1.4
2015-Mar-23 23:33N 37°19' E 025°51'2322.6
2015-Mar-23 22:34N 37°21' E 025°23'6919.6
2015-Mar-23 19:03N 37°35' E 023°58'1225.2
2015-Mar-23 18:33N 37°40' E 023°43'1717.3
2015-Mar-23 17:33N 37°56' E 023°38'0 0.0
2015-Mar-23 16:14N 37°56' E 023°38'0 0.0
2015-Mar-23 15:17N 37°56' E 023°38'0 0.0
2015-Mar-23 14:31N 37°56' E 023°38'0 0.0
2015-Mar-23 13:31N 37°56' E 023°38'0 0.0
2015-Mar-23 12:25N 37°56' E 023°38'0 0.0
2015-Mar-23 11:13N 37°56' E 023°38'0 0.0
2015-Mar-23 09:19N 37°56' E 023°38'0 0.0
2015-Mar-23 08:31N 37°56' E 023°38'0 0.0
2015-Mar-23 07:21N 37°56' E 023°38'0 0.0
2015-Mar-23 06:21N 37°56' E 023°38'7 8.7
2015-Mar-23 05:34N 37°50' E 023°40'5421.6
2015-Mar-23 03:04N 37°32' E 024°44'1219.0
2015-Mar-23 02:26N 37°26' E 024°58'7 8.1
2015-Mar-23 01:33N 37°24' E 025°06'3122.7
2015-Mar-23 00:11N 37°19' E 025°45'26 1.4
2015-Mar-22 06:26N 37°07' E 026°13'2325.7
2015-Mar-22 05:34N 37°12' E 025°46'2625.8
2015-Mar-22 04:34N 37°17' E 025°14'6325.1
2015-Mar-22 02:04N 37°35' E 023°58'1325.6
2015-Mar-22 01:33N 37°40' E 023°43'1717.0
2015-Mar-22 00:33N 37°56' E 023°38'0 0.0
2015-Mar-21 23:29N 37°56' E 023°38'0 0.0
2015-Mar-21 22:34N 37°56' E 023°38'1615.8
2015-Mar-21 21:33N 37°42' E 023°45'5123.3
2015-Mar-21 19:22N 37°22' E 024°44'1923.4
2015-Mar-21 18:34N 37°17' E 025°07'2623.4
2015-Mar-21 17:27N 37°13' E 025°39'35 2.0
2015-Mar-21 00:28N 37°16' E 026°23'2322.1
2015-Mar-20 23:25N 37°18' E 025°53'  
Track history (hours):
 
Tides and Currents Weather Stations Pressure Air Temp Water Temp Dewpoint Dewpoint Depression Visibility Wind Speed Wind Dir Waves Ship Positions

Blue Star 1

Last reported at 2015-Mar-30 22:34 UTC. Time now 2015-Mar-31 16:57 UTC.
Position N 37°19' E 025°53'.

Length 176 m; draft 6.5 m.

Type: Passenger vessel. MMSI: 239710000.

Date/timePositionNaut miles runAvg speedWind from/ knotsBaromVisibWave heightAir tempDewpointWater temp
2015-Mar-30 22:34N 37°19' E 025°53'2222.3
2015-Mar-30 21:34N 37°20' E 025°25'2322.2
2015-Mar-30 20:33N 37°26' E 024°58'9 9.4
2015-Mar-30 19:34N 37°32' E 024°49'4521.6
2015-Mar-30 17:29N 37°37' E 023°52'1920.3
2015-Mar-30 16:34N 37°52' E 023°38'5 4.8
2015-Mar-30 15:33N 37°56' E 023°38'0 0.0
2015-Mar-30 14:30N 37°56' E 023°38'0 0.0
2015-Mar-30 13:33N 37°56' E 023°38'0 0.0
2015-Mar-30 12:33N 37°56' E 023°38'0 0.0
2015-Mar-30 11:29N 37°56' E 023°38'0 0.0
2015-Mar-30 10:29N 37°56' E 023°38'0 0.0
2015-Mar-30 09:32N 37°56' E 023°38'0 0.0
2015-Mar-30 08:32N 37°56' E 023°38'0 0.0
2015-Mar-30 07:33N 37°56' E 023°38'0 0.0
2015-Mar-30 06:33N 37°56' E 023°38'0 0.0
2015-Mar-30 05:33N 37°56' E 023°38'9 8.6
2015-Mar-30 04:33N 37°48' E 023°41'2321.2
2015-Mar-30 03:29N 37°35' E 024°04'4320.8
2015-Mar-30 01:25N 37°26' E 024°57'5 5.6
2015-Mar-30 00:32N 37°25' E 025°03'2222.3
2015-Mar-29 23:33N 37°20' E 025°30'19 0.4
2015-Mar-27 23:30N 37°18' E 025°54'2122.4
2015-Mar-27 22:33N 37°20' E 025°27'2222.0
2015-Mar-27 21:33N 37°26' E 024°60'1010.2
2015-Mar-27 20:32N 37°32' E 024°49'5021.8
2015-Mar-27 18:14N 37°38' E 023°46'1521.9
2015-Mar-27 17:32N 37°51' E 023°37'5 5.4
2015-Mar-27 16:33N 37°56' E 023°38'0 0.0
2015-Mar-27 15:32N 37°56' E 023°38'0 0.0
2015-Mar-27 14:32N 37°56' E 023°38'0 0.0
2015-Mar-27 13:29N 37°56' E 023°38'0 0.2
2015-Mar-27 12:32N 37°57' E 023°38'0 0.0
2015-Mar-27 11:29N 37°57' E 023°38'0 0.0
2015-Mar-27 10:29N 37°57' E 023°38'0 0.0
2015-Mar-27 09:32N 37°57' E 023°38'0 0.0
2015-Mar-27 08:32N 37°57' E 023°38'0 0.0
2015-Mar-27 07:32N 37°57' E 023°38'0 0.0
2015-Mar-27 06:23N 37°57' E 023°38'0 0.0
2015-Mar-27 05:30N 37°57' E 023°38'1212.5
2015-Mar-27 04:33N 37°45' E 023°42'5321.9
2015-Mar-27 02:07N 37°24' E 024°44'1722.2
2015-Mar-27 01:21N 37°20' E 025°05'1822.7
2015-Mar-27 00:33N 37°19' E 025°27'21 0.8
2015-Mar-25 23:21N 37°18' E 025°54'1822.3
2015-Mar-25 22:33N 37°20' E 025°32'2222.0
2015-Mar-25 21:33N 37°24' E 025°04'1311.5
2015-Mar-25 20:26N 37°32' E 024°51'4321.6
2015-Mar-25 18:26N 37°36' E 023°57'2120.9
2015-Mar-25 17:26N 37°50' E 023°37'7 7.4
2015-Mar-25 16:32N 37°56' E 023°38'0 0.0
2015-Mar-25 15:29N 37°56' E 023°38'0 0.0
2015-Mar-25 14:26N 37°56' E 023°38'0 0.0
2015-Mar-25 13:32N 37°56' E 023°38'0 0.0
2015-Mar-25 12:32N 37°56' E 023°38'0 0.0
2015-Mar-25 11:31N 37°56' E 023°38'0 0.0
2015-Mar-25 10:31N 37°56' E 023°38'0 0.0
2015-Mar-25 09:31N 37°56' E 023°38'0 0.0
2015-Mar-25 08:31N 37°56' E 023°38'0 0.0
2015-Mar-25 07:31N 37°56' E 023°38'0 0.0
2015-Mar-25 06:31N 37°56' E 023°38'0 0.0
2015-Mar-25 05:22N 37°56' E 023°38'0 0.0
2015-Mar-25 04:31N 37°56' E 023°38'1010.1
2015-Mar-25 03:33N 37°47' E 023°42'6521.9
2015-Mar-25 00:34N 37°19' E 024°56'2322.7
2015-Mar-24 23:33N 37°16' E 025°25'4922.2
2015-Mar-24 21:21N 37°04' E 026°24'30 1.4
2015-Mar-23 23:33N 37°19' E 025°51'2322.6
2015-Mar-23 22:34N 37°21' E 025°23'6919.6
2015-Mar-23 19:03N 37°35' E 023°58'1225.2
2015-Mar-23 18:33N 37°40' E 023°43'1717.3
2015-Mar-23 17:33N 37°56' E 023°38'0 0.0
2015-Mar-23 16:14N 37°56' E 023°38'0 0.0
2015-Mar-23 15:17N 37°56' E 023°38'0 0.0
2015-Mar-23 14:31N 37°56' E 023°38'0 0.0
2015-Mar-23 13:31N 37°56' E 023°38'0 0.0
2015-Mar-23 12:25N 37°56' E 023°38'0 0.0
2015-Mar-23 11:13N 37°56' E 023°38'0 0.0
2015-Mar-23 09:19N 37°56' E 023°38'0 0.0
2015-Mar-23 08:31N 37°56' E 023°38'0 0.0
2015-Mar-23 07:21N 37°56' E 023°38'0 0.0
2015-Mar-23 06:21N 37°56' E 023°38'7 8.7
2015-Mar-23 05:34N 37°50' E 023°40'5421.6
2015-Mar-23 03:04N 37°32' E 024°44'1219.0
2015-Mar-23 02:26N 37°26' E 024°58'7 8.1
2015-Mar-23 01:33N 37°24' E 025°06'3122.7
2015-Mar-23 00:11N 37°19' E 025°45'26 1.4
2015-Mar-22 06:26N 37°07' E 026°13'2325.7
2015-Mar-22 05:34N 37°12' E 025°46'2625.8
2015-Mar-22 04:34N 37°17' E 025°14'6325.1
2015-Mar-22 02:04N 37°35' E 023°58'1325.6
2015-Mar-22 01:33N 37°40' E 023°43'1717.0
2015-Mar-22 00:33N 37°56' E 023°38'0 0.0
2015-Mar-21 23:29N 37°56' E 023°38'0 0.0
2015-Mar-21 22:34N 37°56' E 023°38'1615.8
2015-Mar-21 21:33N 37°42' E 023°45'5123.3
2015-Mar-21 19:22N 37°22' E 024°44'1923.4
2015-Mar-21 18:34N 37°17' E 025°07'2623.4
2015-Mar-21 17:27N 37°13' E 025°39'35 2.0
2015-Mar-21 00:28N 37°16' E 026°23'2322.1
2015-Mar-20 23:25N 37°18' E 025°53'  

Dump ship's entire track history